Goss, Missouri
Current Conditions -  °F | °C
As of 5:35 AM on Friday 19 Dec 2014 (Local Time) from KHAE Reporting Station
Overcast Overcast  
Wind Chill: 32°   Ceiling: 3000
Heat Index: 32°   Visibility: 7mi
Dew Point: 27°   Wind: 0mph
Humidity: 80%   Direction: NA
Pressure: 30.28"   Gusts: NA
Location:  39.5207°N, 92.0162°W
Report Text: KHAE 191135Z AUTO 00000KT 7SM OVC030 00/M03 A3028 RMK AO2
Loading
Personal Weather Stations






























Interactive Weather Map New forecast layout! Learn more

10-Day Weather Forecast

Advertisements
Track Severe Weather on mobile